Portada
METAR-TAF:

METAR-TAF

Aeroports :

North Central State Airport

Pawtucket, Rhode Island, Estats Units d'Amèrica

latitud: 41-55N, longitud: 071-30W, altitud: 134 m

Observació

L'informe es va fer fa 21 minuts, a les 23:56 UTC
Vent 7 kt del Oest/Sud-Oest, variant entre Sud/Sud-Oest i Oest
Temperatura 27°C
Humitat 70%
Pressió 1015 hPa
Visibilitat: 16.1 km
Cel clar

METAR: KSFZ 102356Z AUTO 24007KT 210V280 10SM CLR 27/21 A2996 RMK AO2 SLP090 T02720211 10333 20272 53003

Hora: 20:17 (00:17 UTC)


TAF: manca

Observacions i pronòstics meteorològics de més de 4000 aeroports (METAR i TAF).

Les estacions disponibles són els punts grocs i vermells al mapa.

Posi el ratolí al punt desitjat per veure el nom de l'estació.

Feu clic per veure les observacions i els pronòstics meteorològics.

Per canviar el mapa: feu clic els botons verds amb una creu de color negre per apropar; al botó verd amb un guió per allunyar la imatge; o en les fletxes verdes per a mapes adjacents.


METAR-TAF: